sensor_id;sensor_type;location;lat;lon;timestamp;temperature;humidity
5578;DHT22;2811;51.900;10.734;2023-02-08T00:02:02;-2.80;99.90
5578;DHT22;2811;51.900;10.734;2023-02-08T00:04:28;-2.90;99.90
5578;DHT22;2811;51.900;10.734;2023-02-08T00:06:55;-3.10;99.90
5578;DHT22;2811;51.900;10.734;2023-02-08T00:09:22;-3.30;99.90
5578;DHT22;2811;51.900;10.734;2023-02-08T00:11:50;-3.30;99.90
5578;DHT22;2811;51.900;10.734;2023-02-08T00:16:46;-3.20;99.90
5578;DHT22;2811;51.900;10.734;2023-02-08T00:19:13;-3.20;99.90
5578;DHT22;2811;51.900;10.734;2023-02-08T00:21:40;-3.10;99.90
5578;DHT22;2811;51.900;10.734;2023-02-08T00:24:07;-3.00;99.90
5578;DHT22;2811;51.900;10.734;2023-02-08T00:26:33;-2.90;99.90
5578;DHT22;2811;51.900;10.734;2023-02-08T00:29:01;-3.10;99.90
5578;DHT22;2811;51.900;10.734;2023-02-08T00:31:28;-3.00;99.90
5578;DHT22;2811;51.900;10.734;2023-02-08T00:33:55;-2.90;99.90
5578;DHT22;2811;51.900;10.734;2023-02-08T00:36:21;-3.10;99.90
5578;DHT22;2811;51.900;10.734;2023-02-08T00:38:48;-3.00;99.90
5578;DHT22;2811;51.900;10.734;2023-02-08T00:41:14;-3.10;99.90
5578;DHT22;2811;51.900;10.734;2023-02-08T00:43:41;-3.10;99.90
5578;DHT22;2811;51.900;10.734;2023-02-08T00:46:09;-3.20;99.90
5578;DHT22;2811;51.900;10.734;2023-02-08T00:48:36;-3.00;99.90
5578;DHT22;2811;51.900;10.734;2023-02-08T00:51:04;-2.90;99.90
5578;DHT22;2811;51.900;10.734;2023-02-08T00:53:34;-2.90;99.90
5578;DHT22;2811;51.900;10.734;2023-02-08T00:56:02;-2.90;99.90
5578;DHT22;2811;51.900;10.734;2023-02-08T00:58:30;-2.90;99.90
5578;DHT22;2811;51.900;10.734;2023-02-08T01:00:57;-3.20;99.90
5578;DHT22;2811;51.900;10.734;2023-02-08T01:03:25;-3.20;99.90
5578;DHT22;2811;51.900;10.734;2023-02-08T01:05:52;-3.10;99.90
5578;DHT22;2811;51.900;10.734;2023-02-08T01:08:19;-3.00;99.90
5578;DHT22;2811;51.900;10.734;2023-02-08T01:10:46;-2.90;99.90
5578;DHT22;2811;51.900;10.734;2023-02-08T01:13:13;-3.00;99.90
5578;DHT22;2811;51.900;10.734;2023-02-08T01:15:40;-3.00;99.90
5578;DHT22;2811;51.900;10.734;2023-02-08T01:18:06;-3.00;99.90
5578;DHT22;2811;51.900;10.734;2023-02-08T01:20:35;-2.80;99.90
5578;DHT22;2811;51.900;10.734;2023-02-08T01:23:02;-2.80;99.90
5578;DHT22;2811;51.900;10.734;2023-02-08T01:25:29;-2.60;99.90
5578;DHT22;2811;51.900;10.734;2023-02-08T01:27:55;-2.70;99.90
5578;DHT22;2811;51.900;10.734;2023-02-08T01:30:22;-2.80;99.90
5578;DHT22;2811;51.900;10.734;2023-02-08T01:32:49;-2.90;99.90
5578;DHT22;2811;51.900;10.734;2023-02-08T01:35:15;-3.10;99.90
5578;DHT22;2811;51.900;10.734;2023-02-08T01:37:43;-3.00;99.90
5578;DHT22;2811;51.900;10.734;2023-02-08T01:40:11;-2.90;99.90
5578;DHT22;2811;51.900;10.734;2023-02-08T01:42:37;-2.90;99.90
5578;DHT22;2811;51.900;10.734;2023-02-08T01:45:26;-2.80;99.90
5578;DHT22;2811;51.900;10.734;2023-02-08T01:47:57;-3.10;99.90
5578;DHT22;2811;51.900;10.734;2023-02-08T01:50:31;-3.10;99.90
5578;DHT22;2811;51.900;10.734;2023-02-08T01:53:00;-3.00;99.90
5578;DHT22;2811;51.900;10.734;2023-02-08T01:55:30;-3.10;99.90
5578;DHT22;2811;51.900;10.734;2023-02-08T01:57:59;-3.30;99.90
5578;DHT22;2811;51.900;10.734;2023-02-08T02:00:27;-3.50;99.90
5578;DHT22;2811;51.900;10.734;2023-02-08T02:02:55;-3.40;99.90
5578;DHT22;2811;51.900;10.734;2023-02-08T02:05:24;-3.30;99.90
5578;DHT22;2811;51.900;10.734;2023-02-08T02:07:53;-3.20;99.90
5578;DHT22;2811;51.900;10.734;2023-02-08T02:10:25;-3.40;99.90
5578;DHT22;2811;51.900;10.734;2023-02-08T02:12:53;-3.40;99.90
5578;DHT22;2811;51.900;10.734;2023-02-08T02:15:21;-3.40;99.90
5578;DHT22;2811;51.900;10.734;2023-02-08T02:17:47;-2.90;99.90
5578;DHT22;2811;51.900;10.734;2023-02-08T02:20:20;-3.40;99.90
5578;DHT22;2811;51.900;10.734;2023-02-08T02:23:25;-3.30;99.90
5578;DHT22;2811;51.900;10.734;2023-02-08T02:26:23;-3.30;99.90
5578;DHT22;2811;51.900;10.734;2023-02-08T02:29:14;-3.30;99.90
5578;DHT22;2811;51.900;10.734;2023-02-08T02:31:53;-3.50;99.90
5578;DHT22;2811;51.900;10.734;2023-02-08T02:34:33;-3.50;99.90
5578;DHT22;2811;51.900;10.734;2023-02-08T02:37:04;-3.60;99.90
5578;DHT22;2811;51.900;10.734;2023-02-08T02:39:41;-3.60;99.90
5578;DHT22;2811;51.900;10.734;2023-02-08T02:42:12;-3.50;99.90
5578;DHT22;2811;51.900;10.734;2023-02-08T02:45:05;-3.40;99.90
5578;DHT22;2811;51.900;10.734;2023-02-08T02:47:37;-3.40;99.90
5578;DHT22;2811;51.900;10.734;2023-02-08T02:50:13;-3.40;99.90
5578;DHT22;2811;51.900;10.734;2023-02-08T02:52:45;-3.40;99.90
5578;DHT22;2811;51.900;10.734;2023-02-08T02:55:15;-3.30;99.90
5578;DHT22;2811;51.900;10.734;2023-02-08T02:57:44;-3.20;99.90
5578;DHT22;2811;51.900;10.734;2023-02-08T03:00:18;-3.10;99.90
5578;DHT22;2811;51.900;10.734;2023-02-08T03:02:47;-3.30;99.90
5578;DHT22;2811;51.900;10.734;2023-02-08T03:05:14;-3.30;99.90
5578;DHT22;2811;51.900;10.734;2023-02-08T03:08:08;-3.40;99.90
5578;DHT22;2811;51.900;10.734;2023-02-08T03:10:51;-3.60;99.90
5578;DHT22;2811;51.900;10.734;2023-02-08T03:13:26;-3.50;99.90
5578;DHT22;2811;51.900;10.734;2023-02-08T03:16:01;-3.50;99.90
5578;DHT22;2811;51.900;10.734;2023-02-08T03:18:36;-3.50;99.90
5578;DHT22;2811;51.900;10.734;2023-02-08T03:21:11;-3.60;99.90
5578;DHT22;2811;51.900;10.734;2023-02-08T03:23:44;-3.60;99.90
5578;DHT22;2811;51.900;10.734;2023-02-08T03:26:15;-3.50;99.90
5578;DHT22;2811;51.900;10.734;2023-02-08T03:28:49;-3.50;99.90
5578;DHT22;2811;51.900;10.734;2023-02-08T03:31:24;-3.40;99.90
5578;DHT22;2811;51.900;10.734;2023-02-08T03:33:57;-3.40;99.90
5578;DHT22;2811;51.900;10.734;2023-02-08T03:36:29;-3.40;99.90
5578;DHT22;2811;51.900;10.734;2023-02-08T03:38:58;-3.40;99.90
5578;DHT22;2811;51.900;10.734;2023-02-08T03:41:29;-3.40;99.90
5578;DHT22;2811;51.900;10.734;2023-02-08T03:43:59;-3.40;99.90
5578;DHT22;2811;51.900;10.734;2023-02-08T03:46:28;-3.40;99.90
5578;DHT22;2811;51.900;10.734;2023-02-08T03:49:00;-3.20;99.90
5578;DHT22;2811;51.900;10.734;2023-02-08T03:51:29;-3.20;99.90
5578;DHT22;2811;51.900;10.734;2023-02-08T03:54:00;-3.20;99.90
5578;DHT22;2811;51.900;10.734;2023-02-08T03:56:33;-3.30;99.90
5578;DHT22;2811;51.900;10.734;2023-02-08T03:59:02;-3.40;99.90
5578;DHT22;2811;51.900;10.734;2023-02-08T04:01:42;-3.50;99.90
5578;DHT22;2811;51.900;10.734;2023-02-08T04:04:11;-3.60;99.90
5578;DHT22;2811;51.900;10.734;2023-02-08T04:06:39;-3.60;99.90
5578;DHT22;2811;51.900;10.734;2023-02-08T04:09:06;-3.60;99.90
5578;DHT22;2811;51.900;10.734;2023-02-08T04:11:32;-3.60;99.90
5578;DHT22;2811;51.900;10.734;2023-02-08T04:13:59;-3.60;99.90
5578;DHT22;2811;51.900;10.734;2023-02-08T04:16:26;-3.60;99.90
5578;DHT22;2811;51.900;10.734;2023-02-08T04:18:52;-3.50;99.90
5578;DHT22;2811;51.900;10.734;2023-02-08T04:21:20;-3.60;99.90
5578;DHT22;2811;51.900;10.734;2023-02-08T04:23:47;-3.50;99.90
5578;DHT22;2811;51.900;10.734;2023-02-08T04:26:14;-3.60;99.90
5578;DHT22;2811;51.900;10.734;2023-02-08T04:28:40;-3.60;99.90
5578;DHT22;2811;51.900;10.734;2023-02-08T04:31:07;-3.60;99.90
5578;DHT22;2811;51.900;10.734;2023-02-08T04:33:33;-3.10;99.90
5578;DHT22;2811;51.900;10.734;2023-02-08T04:36:00;-3.60;99.90
5578;DHT22;2811;51.900;10.734;2023-02-08T04:38:28;-3.60;99.90
5578;DHT22;2811;51.900;10.734;2023-02-08T04:40:55;-3.60;99.90
5578;DHT22;2811;51.900;10.734;2023-02-08T04:43:21;-3.60;99.90
5578;DHT22;2811;51.900;10.734;2023-02-08T04:45:49;-3.60;99.90
5578;DHT22;2811;51.900;10.734;2023-02-08T04:48:15;-3.70;99.90
5578;DHT22;2811;51.900;10.734;2023-02-08T04:50:42;-3.80;99.90
5578;DHT22;2811;51.900;10.734;2023-02-08T04:53:09;-3.70;99.90
5578;DHT22;2811;51.900;10.734;2023-02-08T04:55:37;-3.80;99.90
5578;DHT22;2811;51.900;10.734;2023-02-08T04:58:04;-3.80;99.90
5578;DHT22;2811;51.900;10.734;2023-02-08T05:00:30;-3.80;99.90
5578;DHT22;2811;51.900;10.734;2023-02-08T05:02:57;-3.80;99.90
5578;DHT22;2811;51.900;10.734;2023-02-08T05:05:25;-3.70;99.90
5578;DHT22;2811;51.900;10.734;2023-02-08T05:07:52;-3.80;99.90
5578;DHT22;2811;51.900;10.734;2023-02-08T05:10:18;-3.80;99.90
5578;DHT22;2811;51.900;10.734;2023-02-08T05:12:46;-3.90;99.90
5578;DHT22;2811;51.900;10.734;2023-02-08T05:15:13;-4.00;99.90
5578;DHT22;2811;51.900;10.734;2023-02-08T05:17:40;-3.80;99.90
5578;DHT22;2811;51.900;10.734;2023-02-08T05:20:07;-3.70;99.90
5578;DHT22;2811;51.900;10.734;2023-02-08T05:22:35;-3.70;99.90
5578;DHT22;2811;51.900;10.734;2023-02-08T05:25:01;-3.80;99.90
5578;DHT22;2811;51.900;10.734;2023-02-08T05:27:28;-3.80;99.90
5578;DHT22;2811;51.900;10.734;2023-02-08T05:29:56;-3.80;99.90
5578;DHT22;2811;51.900;10.734;2023-02-08T05:32:23;-3.80;99.90
5578;DHT22;2811;51.900;10.734;2023-02-08T05:34:49;-3.90;99.90
5578;DHT22;2811;51.900;10.734;2023-02-08T05:37:16;-3.60;99.90
5578;DHT22;2811;51.900;10.734;2023-02-08T05:39:42;-3.80;99.90
5578;DHT22;2811;51.900;10.734;2023-02-08T05:42:09;-3.70;99.90
5578;DHT22;2811;51.900;10.734;2023-02-08T05:44:37;-3.80;99.90
5578;DHT22;2811;51.900;10.734;2023-02-08T05:47:05;-3.90;99.90
5578;DHT22;2811;51.900;10.734;2023-02-08T05:49:31;-4.10;99.90
5578;DHT22;2811;51.900;10.734;2023-02-08T05:51:58;-4.10;99.90
5578;DHT22;2811;51.900;10.734;2023-02-08T05:54:25;-4.10;99.90
5578;DHT22;2811;51.900;10.734;2023-02-08T05:56:51;-4.00;99.90
5578;DHT22;2811;51.900;10.734;2023-02-08T05:59:18;-4.10;99.90
5578;DHT22;2811;51.900;10.734;2023-02-08T06:01:44;-4.00;99.90
5578;DHT22;2811;51.900;10.734;2023-02-08T06:04:12;-4.00;99.90
5578;DHT22;2811;51.900;10.734;2023-02-08T06:06:39;-4.00;99.90
5578;DHT22;2811;51.900;10.734;2023-02-08T06:09:06;-4.10;99.90
5578;DHT22;2811;51.900;10.734;2023-02-08T06:11:32;-3.90;99.90
5578;DHT22;2811;51.900;10.734;2023-02-08T06:14:00;-3.90;99.90
5578;DHT22;2811;51.900;10.734;2023-02-08T06:16:27;-4.00;99.90
5578;DHT22;2811;51.900;10.734;2023-02-08T06:18:54;-3.90;99.90
5578;DHT22;2811;51.900;10.734;2023-02-08T06:21:22;-4.00;99.90
5578;DHT22;2811;51.900;10.734;2023-02-08T06:23:49;-4.10;99.90
5578;DHT22;2811;51.900;10.734;2023-02-08T06:26:15;-4.20;99.90
5578;DHT22;2811;51.900;10.734;2023-02-08T06:28:44;-4.20;99.90
5578;DHT22;2811;51.900;10.734;2023-02-08T06:31:11;-4.10;99.90
5578;DHT22;2811;51.900;10.734;2023-02-08T06:33:37;-4.00;99.90
5578;DHT22;2811;51.900;10.734;2023-02-08T06:36:05;-4.00;99.90
5578;DHT22;2811;51.900;10.734;2023-02-08T06:38:33;-4.00;99.90
5578;DHT22;2811;51.900;10.734;2023-02-08T06:41:00;-4.00;99.90
5578;DHT22;2811;51.900;10.734;2023-02-08T06:43:26;-4.00;99.90
5578;DHT22;2811;51.900;10.734;2023-02-08T06:45:53;-4.10;99.90
5578;DHT22;2811;51.900;10.734;2023-02-08T06:48:20;-4.10;99.90
5578;DHT22;2811;51.900;10.734;2023-02-08T06:50:46;-4.10;99.90
5578;DHT22;2811;51.900;10.734;2023-02-08T06:53:13;-4.00;99.90
5578;DHT22;2811;51.900;10.734;2023-02-08T06:55:41;-3.90;99.90
5578;DHT22;2811;51.900;10.734;2023-02-08T06:58:12;-3.90;99.90
5578;DHT22;2811;51.900;10.734;2023-02-08T07:00:47;-3.80;99.90
5578;DHT22;2811;51.900;10.734;2023-02-08T07:03:17;-3.80;99.90
5578;DHT22;2811;51.900;10.734;2023-02-08T07:05:44;-3.80;99.90
5578;DHT22;2811;51.900;10.734;2023-02-08T07:08:13;-3.30;99.90
5578;DHT22;2811;51.900;10.734;2023-02-08T07:10:44;-3.70;99.90
5578;DHT22;2811;51.900;10.734;2023-02-08T07:13:13;-3.70;99.90
5578;DHT22;2811;51.900;10.734;2023-02-08T07:15:39;-3.60;99.90
5578;DHT22;2811;51.900;10.734;2023-02-08T07:18:06;-3.60;99.90
5578;DHT22;2811;51.900;10.734;2023-02-08T07:20:32;-3.50;99.90
5578;DHT22;2811;51.900;10.734;2023-02-08T07:22:59;-3.50;99.90
5578;DHT22;2811;51.900;10.734;2023-02-08T07:25:26;-3.40;99.90
5578;DHT22;2811;51.900;10.734;2023-02-08T07:27:54;-3.30;99.90
5578;DHT22;2811;51.900;10.734;2023-02-08T07:30:20;-3.20;99.90
5578;DHT22;2811;51.900;10.734;2023-02-08T07:32:47;-2.80;99.90
5578;DHT22;2811;51.900;10.734;2023-02-08T07:35:14;-3.20;99.90
5578;DHT22;2811;51.900;10.734;2023-02-08T07:37:40;-3.10;99.90
5578;DHT22;2811;51.900;10.734;2023-02-08T07:40:08;-3.10;99.90
5578;DHT22;2811;51.900;10.734;2023-02-08T07:42:34;-2.90;99.90
5578;DHT22;2811;51.900;10.734;2023-02-08T07:45:03;-2.70;99.90
5578;DHT22;2811;51.900;10.734;2023-02-08T07:47:29;-2.60;99.90
5578;DHT22;2811;51.900;10.734;2023-02-08T07:49:56;-2.40;99.90
5578;DHT22;2811;51.900;10.734;2023-02-08T07:52:23;-2.30;99.90
5578;DHT22;2811;51.900;10.734;2023-02-08T07:54:50;-2.20;99.90
5578;DHT22;2811;51.900;10.734;2023-02-08T07:57:16;-2.10;99.90
5578;DHT22;2811;51.900;10.734;2023-02-08T07:59:45;-2.00;99.90
5578;DHT22;2811;51.900;10.734;2023-02-08T08:02:14;-1.70;99.90
5578;DHT22;2811;51.900;10.734;2023-02-08T08:04:41;-1.60;99.90
5578;DHT22;2811;51.900;10.734;2023-02-08T08:07:07;-1.50;99.90
5578;DHT22;2811;51.900;10.734;2023-02-08T08:09:34;-1.20;99.90
5578;DHT22;2811;51.900;10.734;2023-02-08T08:12:01;-1.10;99.90
5578;DHT22;2811;51.900;10.734;2023-02-08T08:14:28;-1.00;99.90
5578;DHT22;2811;51.900;10.734;2023-02-08T08:16:55;-0.90;99.90
5578;DHT22;2811;51.900;10.734;2023-02-08T08:19:23;-0.50;99.90
5578;DHT22;2811;51.900;10.734;2023-02-08T08:21:50;-0.50;99.90
5578;DHT22;2811;51.900;10.734;2023-02-08T08:24:17;-0.60;99.90
5578;DHT22;2811;51.900;10.734;2023-02-08T08:26:43;-0.40;99.90
5578;DHT22;2811;51.900;10.734;2023-02-08T08:29:10;-0.20;99.90
5578;DHT22;2811;51.900;10.734;2023-02-08T08:31:37;0.10;99.90
5578;DHT22;2811;51.900;10.734;2023-02-08T08:34:04;0.20;99.90
5578;DHT22;2811;51.900;10.734;2023-02-08T08:36:32;0.40;99.90
5578;DHT22;2811;51.900;10.734;2023-02-08T08:38:59;0.30;99.90
5578;DHT22;2811;51.900;10.734;2023-02-08T08:41:26;0.30;99.90
5578;DHT22;2811;51.900;10.734;2023-02-08T08:43:53;0.30;99.90
5578;DHT22;2811;51.900;10.734;2023-02-08T08:46:19;0.60;99.90
5578;DHT22;2811;51.900;10.734;2023-02-08T08:48:46;0.80;99.90
5578;DHT22;2811;51.900;10.734;2023-02-08T08:51:13;1.30;99.90
5578;DHT22;2811;51.900;10.734;2023-02-08T08:53:42;1.40;99.90
5578;DHT22;2811;51.900;10.734;2023-02-08T08:56:08;1.50;99.90
5578;DHT22;2811;51.900;10.734;2023-02-08T08:58:35;1.60;99.90
5578;DHT22;2811;51.900;10.734;2023-02-08T09:01:02;1.30;99.90
5578;DHT22;2811;51.900;10.734;2023-02-08T09:03:29;1.70;99.90
5578;DHT22;2811;51.900;10.734;2023-02-08T09:05:56;1.40;99.90
5578;DHT22;2811;51.900;10.734;2023-02-08T09:08:22;1.40;99.90
5578;DHT22;2811;51.900;10.734;2023-02-08T09:10:51;1.70;99.90
5578;DHT22;2811;51.900;10.734;2023-02-08T09:13:17;1.90;99.90
5578;DHT22;2811;51.900;10.734;2023-02-08T09:15:46;1.80;99.90
5578;DHT22;2811;51.900;10.734;2023-02-08T09:18:13;1.70;99.90
5578;DHT22;2811;51.900;10.734;2023-02-08T09:20:39;1.70;99.90
5578;DHT22;2811;51.900;10.734;2023-02-08T09:23:06;1.70;99.90
5578;DHT22;2811;51.900;10.734;2023-02-08T09:25:36;1.70;99.90
5578;DHT22;2811;51.900;10.734;2023-02-08T09:28:04;1.60;99.90
5578;DHT22;2811;51.900;10.734;2023-02-08T09:30:31;1.70;99.90
5578;DHT22;2811;51.900;10.734;2023-02-08T09:32:58;1.80;99.90
5578;DHT22;2811;51.900;10.734;2023-02-08T09:35:25;1.80;99.90
5578;DHT22;2811;51.900;10.734;2023-02-08T09:37:52;2.10;99.90
5578;DHT22;2811;51.900;10.734;2023-02-08T09:40:21;1.70;99.90
5578;DHT22;2811;51.900;10.734;2023-02-08T09:42:53;1.70;99.90
5578;DHT22;2811;51.900;10.734;2023-02-08T09:45:36;1.70;99.90
5578;DHT22;2811;51.900;10.734;2023-02-08T09:48:13;1.70;99.90
5578;DHT22;2811;51.900;10.734;2023-02-08T09:50:46;1.80;99.90
5578;DHT22;2811;51.900;10.734;2023-02-08T09:53:17;1.90;99.90
5578;DHT22;2811;51.900;10.734;2023-02-08T09:55:48;1.90;99.90
5578;DHT22;2811;51.900;10.734;2023-02-08T09:58:20;2.10;99.90
5578;DHT22;2811;51.900;10.734;2023-02-08T10:00:50;2.00;99.90
5578;DHT22;2811;51.900;10.734;2023-02-08T10:03:25;2.20;99.90
5578;DHT22;2811;51.900;10.734;2023-02-08T10:05:53;2.30;99.90
5578;DHT22;2811;51.900;10.734;2023-02-08T10:08:20;2.40;99.90
5578;DHT22;2811;51.900;10.734;2023-02-08T10:10:52;2.30;99.90
5578;DHT22;2811;51.900;10.734;2023-02-08T10:13:32;2.30;99.90
5578;DHT22;2811;51.900;10.734;2023-02-08T10:16:12;2.50;99.90
5578;DHT22;2811;51.900;10.734;2023-02-08T10:18:48;2.60;99.90
5578;DHT22;2811;51.900;10.734;2023-02-08T10:21:26;2.70;99.90
5578;DHT22;2811;51.900;10.734;2023-02-08T10:24:13;2.70;99.90
5578;DHT22;2811;51.900;10.734;2023-02-08T10:26:45;2.70;99.90
5578;DHT22;2811;51.900;10.734;2023-02-08T10:29:32;2.70;99.90
5578;DHT22;2811;51.900;10.734;2023-02-08T10:32:17;2.60;99.90
5578;DHT22;2811;51.900;10.734;2023-02-08T10:34:49;2.70;99.90
5578;DHT22;2811;51.900;10.734;2023-02-08T10:37:19;2.50;99.90
5578;DHT22;2811;51.900;10.734;2023-02-08T10:39:48;2.50;99.90
5578;DHT22;2811;51.900;10.734;2023-02-08T10:42:17;2.50;99.90
5578;DHT22;2811;51.900;10.734;2023-02-08T10:44:56;2.60;99.90
5578;DHT22;2811;51.900;10.734;2023-02-08T10:47:41;2.70;99.90
5578;DHT22;2811;51.900;10.734;2023-02-08T10:50:16;2.50;99.90
5578;DHT22;2811;51.900;10.734;2023-02-08T10:52:44;2.50;99.90
5578;DHT22;2811;51.900;10.734;2023-02-08T10:55:13;2.70;99.90
5578;DHT22;2811;51.900;10.734;2023-02-08T10:57:41;2.80;99.90
5578;DHT22;2811;51.900;10.734;2023-02-08T11:00:12;2.80;99.90
5578;DHT22;2811;51.900;10.734;2023-02-08T11:02:44;2.80;99.90
5578;DHT22;2811;51.900;10.734;2023-02-08T11:05:16;2.90;99.90
5578;DHT22;2811;51.900;10.734;2023-02-08T11:07:43;2.80;99.90
5578;DHT22;2811;51.900;10.734;2023-02-08T11:10:20;2.90;99.90
5578;DHT22;2811;51.900;10.734;2023-02-08T11:12:54;3.00;99.90
5578;DHT22;2811;51.900;10.734;2023-02-08T11:15:23;2.90;99.90
5578;DHT22;2811;51.900;10.734;2023-02-08T11:17:57;2.90;99.90
5578;DHT22;2811;51.900;10.734;2023-02-08T11:20:29;2.90;99.90
5578;DHT22;2811;51.900;10.734;2023-02-08T11:22:57;3.00;99.90
5578;DHT22;2811;51.900;10.734;2023-02-08T11:25:36;3.10;99.90
5578;DHT22;2811;51.900;10.734;2023-02-08T11:28:05;3.10;99.90
5578;DHT22;2811;51.900;10.734;2023-02-08T11:30:54;3.20;99.90
5578;DHT22;2811;51.900;10.734;2023-02-08T11:33:22;3.30;99.90
5578;DHT22;2811;51.900;10.734;2023-02-08T11:36:03;3.30;99.90
5578;DHT22;2811;51.900;10.734;2023-02-08T11:38:32;3.30;99.90
5578;DHT22;2811;51.900;10.734;2023-02-08T11:41:02;3.30;99.90
5578;DHT22;2811;51.900;10.734;2023-02-08T11:43:31;3.40;99.90
5578;DHT22;2811;51.900;10.734;2023-02-08T11:46:00;3.50;99.90
5578;DHT22;2811;51.900;10.734;2023-02-08T11:48:39;3.40;99.90
5578;DHT22;2811;51.900;10.734;2023-02-08T11:51:08;3.50;99.90
5578;DHT22;2811;51.900;10.734;2023-02-08T11:53:39;3.60;99.90
5578;DHT22;2811;51.900;10.734;2023-02-08T11:56:16;3.80;99.90
5578;DHT22;2811;51.900;10.734;2023-02-08T11:58:59;3.80;99.90
5578;DHT22;2811;51.900;10.734;2023-02-08T12:01:29;3.90;99.90
5578;DHT22;2811;51.900;10.734;2023-02-08T12:03:59;4.10;99.90
5578;DHT22;2811;51.900;10.734;2023-02-08T12:06:50;4.30;99.90
5578;DHT22;2811;51.900;10.734;2023-02-08T12:09:32;4.40;99.90
5578;DHT22;2811;51.900;10.734;2023-02-08T12:12:06;4.30;99.90
5578;DHT22;2811;51.900;10.734;2023-02-08T12:14:49;4.40;99.90
5578;DHT22;2811;51.900;10.734;2023-02-08T12:17:29;4.40;99.90
5578;DHT22;2811;51.900;10.734;2023-02-08T12:20:33;4.60;99.90
5578;DHT22;2811;51.900;10.734;2023-02-08T12:23:19;4.50;99.90
5578;DHT22;2811;51.900;10.734;2023-02-08T12:25:51;4.50;99.90
5578;DHT22;2811;51.900;10.734;2023-02-08T12:28:27;4.60;99.90
5578;DHT22;2811;51.900;10.734;2023-02-08T12:31:03;4.70;99.90
5578;DHT22;2811;51.900;10.734;2023-02-08T12:33:40;4.60;99.90
5578;DHT22;2811;51.900;10.734;2023-02-08T12:36:30;4.50;99.90
5578;DHT22;2811;51.900;10.734;2023-02-08T12:39:24;4.60;99.90
5578;DHT22;2811;51.900;10.734;2023-02-08T12:42:22;4.60;99.90
5578;DHT22;2811;51.900;10.734;2023-02-08T12:45:11;4.60;99.90
5578;DHT22;2811;51.900;10.734;2023-02-08T12:47:51;4.60;99.90
5578;DHT22;2811;51.900;10.734;2023-02-08T12:50:26;4.60;99.90
5578;DHT22;2811;51.900;10.734;2023-02-08T12:53:00;4.60;99.90
5578;DHT22;2811;51.900;10.734;2023-02-08T12:55:29;4.80;99.90
5578;DHT22;2811;51.900;10.734;2023-02-08T12:58:13;4.60;99.90
5578;DHT22;2811;51.900;10.734;2023-02-08T13:00:43;4.60;99.90
5578;DHT22;2811;51.900;10.734;2023-02-08T13:03:14;4.70;99.90
5578;DHT22;2811;51.900;10.734;2023-02-08T13:05:48;4.60;99.90
5578;DHT22;2811;51.900;10.734;2023-02-08T13:08:26;4.60;99.90
5578;DHT22;2811;51.900;10.734;2023-02-08T13:10:58;4.70;99.90
5578;DHT22;2811;51.900;10.734;2023-02-08T13:13:29;4.90;99.90
5578;DHT22;2811;51.900;10.734;2023-02-08T13:16:00;4.90;99.90
5578;DHT22;2811;51.900;10.734;2023-02-08T13:18:29;4.90;99.90
5578;DHT22;2811;51.900;10.734;2023-02-08T13:21:00;5.00;99.90
5578;DHT22;2811;51.900;10.734;2023-02-08T13:23:33;5.00;99.90
5578;DHT22;2811;51.900;10.734;2023-02-08T13:26:06;4.60;99.90
5578;DHT22;2811;51.900;10.734;2023-02-08T13:28:34;4.40;99.90
5578;DHT22;2811;51.900;10.734;2023-02-08T13:31:03;4.50;99.90
5578;DHT22;2811;51.900;10.734;2023-02-08T13:33:35;4.30;99.90
5578;DHT22;2811;51.900;10.734;2023-02-08T13:36:05;4.20;99.90
5578;DHT22;2811;51.900;10.734;2023-02-08T13:38:35;4.20;99.90
5578;DHT22;2811;51.900;10.734;2023-02-08T13:41:12;4.10;99.90
5578;DHT22;2811;51.900;10.734;2023-02-08T13:43:42;4.00;99.90
5578;DHT22;2811;51.900;10.734;2023-02-08T13:46:11;4.00;99.90
5578;DHT22;2811;51.900;10.734;2023-02-08T13:48:44;3.90;99.90
5578;DHT22;2811;51.900;10.734;2023-02-08T13:54:28;3.90;99.90
5578;DHT22;2811;51.900;10.734;2023-02-08T13:56:54;3.80;99.90
5578;DHT22;2811;51.900;10.734;2023-02-08T13:59:30;3.70;99.90
5578;DHT22;2811;51.900;10.734;2023-02-08T14:02:19;3.80;99.90
5578;DHT22;2811;51.900;10.734;2023-02-08T14:04:48;3.80;99.90
5578;DHT22;2811;51.900;10.734;2023-02-08T14:07:21;3.80;99.90
5578;DHT22;2811;51.900;10.734;2023-02-08T14:10:06;3.80;99.90
5578;DHT22;2811;51.900;10.734;2023-02-08T14:12:39;3.70;99.90
5578;DHT22;2811;51.900;10.734;2023-02-08T14:15:29;3.70;99.90
5578;DHT22;2811;51.900;10.734;2023-02-08T14:17:57;3.70;99.90
5578;DHT22;2811;51.900;10.734;2023-02-08T14:20:29;3.60;99.90
5578;DHT22;2811;51.900;10.734;2023-02-08T14:22:59;3.50;99.90
5578;DHT22;2811;51.900;10.734;2023-02-08T14:25:36;3.40;99.90
5578;DHT22;2811;51.900;10.734;2023-02-08T14:28:04;3.50;99.90
5578;DHT22;2811;51.900;10.734;2023-02-08T14:30:32;3.50;99.90
5578;DHT22;2811;51.900;10.734;2023-02-08T14:33:15;3.30;99.90
5578;DHT22;2811;51.900;10.734;2023-02-08T14:35:51;3.10;99.90
5578;DHT22;2811;51.900;10.734;2023-02-08T14:41:42;3.00;99.90
5578;DHT22;2811;51.900;10.734;2023-02-08T14:47:50;2.80;99.90
5578;DHT22;2811;51.900;10.734;2023-02-08T14:50:18;2.80;99.90
5578;DHT22;2811;51.900;10.734;2023-02-08T14:52:51;2.70;99.90
5578;DHT22;2811;51.900;10.734;2023-02-08T14:55:23;2.70;99.90
5578;DHT22;2811;51.900;10.734;2023-02-08T14:57:54;2.60;99.90
5578;DHT22;2811;51.900;10.734;2023-02-08T15:00:24;2.50;99.90
5578;DHT22;2811;51.900;10.734;2023-02-08T15:02:52;2.60;99.90
5578;DHT22;2811;51.900;10.734;2023-02-08T15:05:21;2.50;99.90
5578;DHT22;2811;51.900;10.734;2023-02-08T15:07:50;2.40;99.90
5578;DHT22;2811;51.900;10.734;2023-02-08T15:10:19;2.30;99.90
5578;DHT22;2811;51.900;10.734;2023-02-08T15:12:49;2.20;99.90
5578;DHT22;2811;51.900;10.734;2023-02-08T15:15:23;2.10;99.90
5578;DHT22;2811;51.900;10.734;2023-02-08T15:17:52;2.10;99.90
5578;DHT22;2811;51.900;10.734;2023-02-08T15:20:20;2.00;99.90
5578;DHT22;2811;51.900;10.734;2023-02-08T15:22:47;1.90;99.90
5578;DHT22;2811;51.900;10.734;2023-02-08T15:25:23;1.80;99.90
5578;DHT22;2811;51.900;10.734;2023-02-08T15:27:51;1.70;99.90
5578;DHT22;2811;51.900;10.734;2023-02-08T15:30:30;1.60;99.90
5578;DHT22;2811;51.900;10.734;2023-02-08T15:32:58;1.60;99.90
5578;DHT22;2811;51.900;10.734;2023-02-08T15:35:25;1.60;99.90
5578;DHT22;2811;51.900;10.734;2023-02-08T15:37:53;1.50;99.90
5578;DHT22;2811;51.900;10.734;2023-02-08T15:40:23;1.50;99.90
5578;DHT22;2811;51.900;10.734;2023-02-08T15:42:51;1.40;99.90
5578;DHT22;2811;51.900;10.734;2023-02-08T15:45:26;1.30;99.90
5578;DHT22;2811;51.900;10.734;2023-02-08T15:47:55;1.30;99.90
5578;DHT22;2811;51.900;10.734;2023-02-08T15:50:23;1.20;99.90
5578;DHT22;2811;51.900;10.734;2023-02-08T15:52:56;1.20;99.90
5578;DHT22;2811;51.900;10.734;2023-02-08T15:55:25;1.20;99.90
5578;DHT22;2811;51.900;10.734;2023-02-08T15:57:55;1.20;99.90
5578;DHT22;2811;51.900;10.734;2023-02-08T16:00:25;1.10;99.90
5578;DHT22;2811;51.900;10.734;2023-02-08T16:02:58;1.10;99.90
5578;DHT22;2811;51.900;10.734;2023-02-08T16:05:27;1.00;99.90
5578;DHT22;2811;51.900;10.734;2023-02-08T16:07:55;1.00;99.90
5578;DHT22;2811;51.900;10.734;2023-02-08T16:10:27;1.00;99.90
5578;DHT22;2811;51.900;10.734;2023-02-08T16:12:56;1.00;99.90
5578;DHT22;2811;51.900;10.734;2023-02-08T16:15:38;0.90;99.90
5578;DHT22;2811;51.900;10.734;2023-02-08T16:18:30;0.80;99.90
5578;DHT22;2811;51.900;10.734;2023-02-08T16:20:59;0.80;99.90
5578;DHT22;2811;51.900;10.734;2023-02-08T16:23:27;0.70;99.90
5578;DHT22;2811;51.900;10.734;2023-02-08T16:25:55;0.70;99.90
5578;DHT22;2811;51.900;10.734;2023-02-08T16:28:26;0.70;99.90